Time;durP1;ratioP1;P1;durP2;ratioP2;P2;SDS_P1;SDS_P2;PMS_P1;PMS_P2;Temp;Humidity;BMP_temperature;BMP_pressure;BME280_temperature;BME280_humidity;BME280_pressure;Samples;Min_cycle;Max_cycle;Signal;HPM_P1;HPM_P2
2021/12/08 00:01:51;;;;;;;22.75;10.20;;;;;;;-1.05;72.67;98945.13;5152746;27;20079;-59
2021/12/08 00:04:16;;;;;;;21.30;10.32;;;;;;;-1.08;71.85;98955.88;5151560;27;20087;-56
2021/12/08 00:06:42;;;;;;;22.35;10.45;;;;;;;-1.10;72.39;98953.44;5152967;27;20558;-56
2021/12/08 00:09:26;;;;;;;26.00;12.52;;;;;;;-1.13;72.40;98953.78;5152622;27;20038;-57
2021/12/08 00:14:37;;;;;;;24.52;11.48;;;;;;;-1.23;72.18;98953.22;5151278;27;20043;-56
2021/12/08 00:17:04;;;;;;;20.73;9.68;;;;;;;-1.35;72.04;98950.19;5152814;27;20030;-56
2021/12/08 00:19:30;;;;;;;23.00;10.32;;;;;;;-1.36;72.85;98953.75;5152056;27;20049;-57
2021/12/08 00:21:56;;;;;;;21.60;10.75;;;;;;;-1.30;72.75;98954.84;5151355;27;20125;-55
2021/12/08 00:24:22;;;;;;;21.23;10.18;;;;;;;-1.24;72.55;98956.78;5152674;27;20121;-53
2021/12/08 00:26:48;;;;;;;24.33;11.32;;;;;;;-1.31;72.02;98948.84;5152149;27;20117;-56
2021/12/08 00:29:15;;;;;;;26.38;11.57;;;;;;;-1.39;72.60;98939.31;5152590;27;20043;-57
2021/12/08 00:31:45;;;;;;;24.10;10.95;;;;;;;-1.39;72.31;98936.69;5152614;27;20045;-56
2021/12/08 00:34:11;;;;;;;21.50;10.77;;;;;;;-1.54;72.15;98909.03;5151518;27;20129;-55
2021/12/08 00:36:49;;;;;;;21.90;10.23;;;;;;;-1.54;72.19;98927.22;5152552;27;20098;-57
2021/12/08 00:39:15;;;;;;;22.75;10.48;;;;;;;-1.53;72.56;98949.63;5151801;27;20092;-55
2021/12/08 00:41:41;;;;;;;46.65;22.33;;;;;;;-1.47;73.09;98948.94;5152594;27;20042;-53
2021/12/08 00:44:07;;;;;;;19.85;10.00;;;;;;;-1.61;72.28;98947.88;5152432;27;20049;-55
2021/12/08 00:46:34;;;;;;;31.77;13.25;;;;;;;-1.53;72.64;98955.66;5152198;27;20026;-56
2021/12/08 00:49:00;;;;;;;21.52;10.95;;;;;;;-1.61;72.63;98971.28;5152210;27;20053;-57
2021/12/08 00:51:26;;;;;;;27.38;13.80;;;;;;;-1.49;72.79;98975.13;5152812;27;20034;-57
2021/12/08 00:53:52;;;;;;;22.30;10.80;;;;;;;-1.45;71.80;98981.59;5156519;27;20088;-56
2021/12/08 00:56:17;;;;;;;22.67;11.18;;;;;;;-1.56;72.02;98974.16;5156171;27;20041;-57
2021/12/08 00:58:44;;;;;;;25.88;11.20;;;;;;;-1.67;72.31;98979.75;5156576;27;20039;-56
2021/12/08 01:01:09;;;;;;;23.70;11.65;;;;;;;-1.73;72.07;98989.03;5155505;27;20039;-57
2021/12/08 01:03:37;;;;;;;23.60;11.07;;;;;;;-1.86;72.69;98992.13;5156291;27;20460;-56
2021/12/08 01:06:04;;;;;;;19.83;10.95;;;;;;;-1.89;72.65;98995.06;5134038;27;20122;-57
2021/12/08 01:08:31;;;;;;;22.65;11.18;;;;;;;-1.91;72.39;98986.66;5117310;27;20118;-55
2021/12/08 01:11:04;;;;;;;18.65;9.52;;;;;;;-2.01;72.29;98993.00;5135485;27;20043;-55
2021/12/08 01:13:30;;;;;;;19.92;10.27;;;;;;;-2.18;72.69;98994.81;5134244;27;20535;-55
2021/12/08 01:15:58;;;;;;;22.90;11.23;;;;;;;-2.12;72.86;98994.97;5140399;27;20075;-56
2021/12/08 01:18:26;;;;;;;19.27;9.23;;;;;;;-2.22;72.89;98993.53;5154903;27;20046;-57
2021/12/08 01:20:52;;;;;;;25.10;11.70;;;;;;;-2.23;73.20;99000.50;5156483;27;20488;-57
2021/12/08 01:23:18;;;;;;;25.05;11.68;;;;;;;-2.19;72.95;99012.19;5154867;27;20499;-56
2021/12/08 01:25:44;;;;;;;25.80;11.65;;;;;;;-2.21;73.39;99021.09;5156140;27;20126;-57
2021/12/08 01:28:10;;;;;;;22.55;11.40;;;;;;;-2.26;72.99;99006.03;5154332;27;20130;-57
2021/12/08 01:30:37;;;;;;;28.20;12.20;;;;;;;-2.20;72.92;99005.38;5156218;27;20070;-55
2021/12/08 01:33:03;;;;;;;28.75;12.35;;;;;;;-2.20;72.67;98994.19;5154685;27;20046;-56
2021/12/08 01:35:29;;;;;;;23.25;11.35;;;;;;;-2.11;72.70;99001.78;5155628;27;20065;-56
2021/12/08 01:37:55;;;;;;;23.98;11.23;;;;;;;-2.16;72.52;99001.47;5155849;27;20066;-57
2021/12/08 01:40:21;;;;;;;27.10;12.35;;;;;;;-2.20;72.50;98999.38;5156161;27;20077;-57
2021/12/08 01:42:50;;;;;;;23.50;11.25;;;;;;;-2.22;72.40;99006.50;5154812;27;20035;-57
2021/12/08 01:48:11;;;;;;;25.67;11.20;;;;;;;-2.28;72.73;99013.16;5144436;27;20059;-57
2021/12/08 01:50:39;;;;;;;26.83;11.98;;;;;;;-2.33;72.49;99018.84;5154464;27;20092;-56
2021/12/08 01:53:06;;;;;;;24.10;11.52;;;;;;;-2.35;72.69;99017.41;5154338;27;20096;-57
2021/12/08 01:55:32;;;;;;;25.45;11.70;;;;;;;-2.38;72.72;99021.13;5153745;27;20397;-55
2021/12/08 01:58:02;;;;;;;21.48;10.45;;;;;;;-2.49;72.92;99034.44;5155371;27;20039;-57
2021/12/08 02:00:35;;;;;;;27.58;12.25;;;;;;;-2.51;73.48;99021.59;5154199;27;20453;-55
2021/12/08 02:03:04;;;;;;;27.40;12.45;;;;;;;-2.46;73.42;99031.50;5155305;27;20027;-57
2021/12/08 02:05:30;;;;;;;27.45;12.40;;;;;;;-2.62;73.45;99024.53;5154773;27;20049;-57
2021/12/08 02:07:56;;;;;;;23.95;11.68;;;;;;;-2.68;73.79;99027.75;5155793;27;20129;-58
2021/12/08 02:10:23;;;;;;;24.58;11.70;;;;;;;-2.64;73.38;99030.88;5155445;27;20415;-55
2021/12/08 02:12:49;;;;;;;24.23;12.05;;;;;;;-2.64;73.88;99038.66;5153516;27;20039;-56
2021/12/08 02:15:17;;;;;;;25.10;11.68;;;;;;;-2.68;73.05;99032.94;5154053;27;20099;-56
2021/12/08 02:17:47;;;;;;;24.42;11.13;;;;;;;-2.71;72.97;99043.66;5153904;27;20042;-57
2021/12/08 02:20:15;;;;;;;23.00;10.68;;;;;;;-2.93;73.54;99039.91;5155416;27;20049;-56
2021/12/08 02:22:42;;;;;;;26.75;11.93;;;;;;;-2.98;73.86;99050.72;5154895;27;20035;-54
2021/12/08 02:25:10;;;;;;;24.00;11.07;;;;;;;-3.16;74.04;99050.03;5153238;27;20126;-57
2021/12/08 02:27:36;;;;;;;25.60;11.32;;;;;;;-3.18;73.63;99045.97;5153563;27;20145;-56
2021/12/08 02:30:58;;;;;;;22.55;9.38;;;;;;;-3.35;74.39;99045.09;5154960;27;20050;-57
2021/12/08 02:46:45;;;;;;;25.73;11.48;;;;;;;-3.29;74.14;99062.66;5153219;27;20403;-57
2021/12/08 02:49:16;;;;;;;26.77;11.60;;;;;;;-3.43;73.65;99075.22;5154321;27;20050;-55
2021/12/08 02:51:43;;;;;;;21.10;9.52;;;;;;;-3.62;74.36;99072.84;5153153;27;20031;-55
2021/12/08 02:54:09;;;;;;;25.30;11.45;;;;;;;-3.49;74.26;99067.25;5152895;27;20129;-56
2021/12/08 02:56:35;;;;;;;18.10;8.43;;;;;;;-3.65;74.06;99057.59;5152811;27;20438;-56
2021/12/08 02:59:01;;;;;;;26.80;10.98;;;;;;;-3.76;74.55;99063.88;5135497;27;20053;-56
2021/12/08 03:01:27;;;;;;;23.45;10.18;;;;;;;-3.81;74.81;99073.06;5134879;27;20085;-54
2021/12/08 03:03:53;;;;;;;25.23;11.30;;;;;;;-3.84;75.43;99070.78;5154010;27;20516;-54
2021/12/08 03:06:20;;;;;;;23.92;10.95;;;;;;;-3.81;75.64;99078.25;5152823;27;20140;-56
2021/12/08 03:08:47;;;;;;;27.52;10.95;;;;;;;-3.92;75.22;99069.75;5153048;27;20034;-56
2021/12/08 03:11:15;;;;;;;28.73;11.80;;;;;;;-3.85;75.57;99076.91;5153446;27;20049;-54
2021/12/08 03:13:44;;;;;;;26.15;11.70;;;;;;;-3.82;75.52;99076.59;5154197;27;20066;-56
2021/12/08 03:16:14;;;;;;;23.60;12.05;;;;;;;-3.79;75.59;99087.50;5153559;27;20069;-56
2021/12/08 03:18:41;;;;;;;29.38;11.48;;;;;;;-3.88;75.72;99094.41;5153730;27;20165;-57
2021/12/08 03:21:09;;;;;;;29.30;11.68;;;;;;;-3.71;76.30;99081.53;5134712;27;20042;-56
2021/12/08 03:26:12;;;;;;;31.67;12.15;;;;;;;-3.64;75.18;99085.16;5152553;27;20035;-58
2021/12/08 03:28:46;;;;;;;31.50;13.00;;;;;;;-3.70;75.15;99085.78;5152329;27;20125;-55
2021/12/08 03:31:17;;;;;;;27.70;11.90;;;;;;;-3.66;75.43;99081.91;5153235;27;20047;-57
2021/12/08 03:33:44;;;;;;;30.77;12.00;;;;;;;-3.66;74.60;99090.47;5153501;27;20042;-58
2021/12/08 03:36:10;;;;;;;21.65;9.43;;;;;;;-3.73;73.28;99096.44;5117913;27;20536;-57
2021/12/08 03:38:39;;;;;;;24.50;9.60;;;;;;;-3.86;73.23;99091.66;5152560;27;20129;-56
2021/12/08 03:41:06;;;;;;;20.83;9.60;;;;;;;-3.91;73.89;99091.31;5152276;27;20038;-56
2021/12/08 03:43:32;;;;;;;30.92;11.13;;;;;;;-3.91;74.01;99088.72;5152487;27;20080;-56
2021/12/08 03:45:58;;;;;;;28.38;11.05;;;;;;;-3.91;74.12;99099.09;5152745;27;20127;-55
2021/12/08 03:48:44;;;;;;;27.92;12.18;;;;;;;-3.93;74.09;99095.81;5152231;27;20451;-57
2021/12/08 03:51:10;;;;;;;26.73;11.85;;;;;;;-3.85;73.21;99097.63;5130653;28;20629;-56
2021/12/08 03:53:36;;;;;;;29.98;11.75;;;;;;;-3.75;72.90;99114.72;5131917;27;20042;-56
2021/12/08 03:56:03;;;;;;;30.80;11.98;;;;;;;-3.68;72.53;99102.78;5131680;27;20031;-57
2021/12/08 03:58:28;;;;;;;29.75;12.65;;;;;;;-3.57;73.35;99111.25;5113331;28;20038;-57
2021/12/08 04:00:56;;;;;;;26.38;11.27;;;;;;;-3.59;73.00;99108.00;5149555;27;20047;-54
2021/12/08 04:03:25;;;;;;;28.75;12.63;;;;;;;-3.72;72.81;99121.38;5152170;27;20042;-56
2021/12/08 04:06:00;;;;;;;25.42;10.85;;;;;;;-3.73;72.83;99124.94;5152495;27;20510;-57
2021/12/08 04:08:56;;;;;;;29.35;11.63;;;;;;;-3.77;72.85;99129.59;5151931;27;20125;-56
2021/12/08 04:11:18;;;;;;;25.52;11.35;;;;;;;-3.91;72.20;99130.16;5151495;27;20047;-58
2021/12/08 04:13:53;;;;;;;28.42;12.43;;;;;;;-4.08;73.32;99129.22;5151973;27;20095;-57
2021/12/08 04:16:23;;;;;;;24.50;10.10;;;;;;;-4.15;71.65;99136.75;5152424;27;20045;-57
2021/12/08 04:18:49;;;;;;;23.80;11.20;;;;;;;-4.29;71.96;99141.63;5151532;27;20039;-57
2021/12/08 04:21:16;;;;;;;18.58;6.82;;;;;;;-4.61;71.89;99146.34;5133253;27;20041;-58
2021/12/08 04:23:43;;;;;;;27.98;9.88;;;;;;;-4.65;71.72;99145.00;5151899;27;20039;-56
2021/12/08 04:26:22;;;;;;;25.42;9.63;;;;;;;-4.83;72.31;99144.97;5152088;27;20089;-55
2021/12/08 04:28:48;;;;;;;26.20;10.38;;;;;;;-4.94;72.14;99142.59;5155230;27;20126;-55
2021/12/08 04:31:28;;;;;;;23.33;8.63;;;;;;;-5.16;72.69;99155.91;5155422;27;20117;-56
2021/12/08 04:33:59;;;;;;;27.60;9.75;;;;;;;-5.22;72.66;99159.06;5137145;27;20038;-57
2021/12/08 04:36:30;;;;;;;19.13;9.75;;;;;;;-5.33;72.98;99160.84;5109872;27;1297850;-56
2021/12/08 04:38:59;;;;;;;27.63;10.20;;;;;;;-5.38;73.05;99162.22;5156133;27;20066;-58
2021/12/08 04:41:36;;;;;;;27.90;11.13;;;;;;;-5.39;73.40;99153.66;5156898;27;20125;-56
2021/12/08 04:44:28;;;;;;;21.50;9.68;;;;;;;-5.42;73.21;99159.09;5139539;27;20034;-55
2021/12/08 04:52:23;;;;;;;23.75;8.18;;;;;;;-5.62;73.92;99160.09;5156467;27;20512;-57
2021/12/08 05:08:35;;;;;;;27.63;10.15;;;;;;;-5.38;73.43;99186.31;5155868;27;20142;-57
2021/12/08 05:11:01;;;;;;;28.80;10.93;;;;;;;-5.39;73.69;99189.81;5155980;27;20074;-56
2021/12/08 05:13:27;;;;;;;35.88;12.93;;;;;;;-5.33;73.29;99198.78;5154637;27;20030;-55
2021/12/08 05:15:55;;;;;;;24.88;9.75;;;;;;;-5.35;73.31;99201.53;5155353;27;20121;-57
2021/12/08 05:18:25;;;;;;;28.75;10.48;;;;;;;-5.37;73.85;99195.66;5155733;27;20438;-57
2021/12/08 05:21:04;;;;;;;29.50;9.85;;;;;;;-5.33;73.08;99214.28;5154499;27;20038;-56
2021/12/08 05:23:49;;;;;;;25.05;10.00;;;;;;;-5.35;73.11;99217.03;5153341;27;20499;-57
2021/12/08 05:26:32;;;;;;;26.48;10.60;;;;;;;-5.30;73.47;99211.41;5135188;27;20050;-58
2021/12/08 05:29:22;;;;;;;23.40;8.30;;;;;;;-5.33;73.38;99217.69;5134958;27;20439;-56
2021/12/08 05:31:49;;;;;;;25.20;9.25;;;;;;;-5.21;72.71;99231.25;5149819;27;20050;-55
2021/12/08 05:34:15;;;;;;;25.90;10.68;;;;;;;-5.23;73.59;99219.44;5153302;27;20045;-59
2021/12/08 05:36:43;;;;;;;23.90;8.88;;;;;;;-5.16;72.65;99221.31;5153631;27;20074;-53
2021/12/08 05:39:20;;;;;;;26.63;10.93;;;;;;;-5.13;72.91;99223.63;5114383;27;20039;-57
2021/12/08 05:41:50;;;;;;;23.30;10.10;;;;;;;-5.12;73.09;99234.75;5151302;27;20566;-55
2021/12/08 05:44:17;;;;;;;25.55;10.63;;;;;;;-5.15;73.19;99235.84;5153474;27;20038;-57
2021/12/08 05:46:47;;;;;;;25.52;10.60;;;;;;;-5.08;73.44;99229.19;5152939;27;20039;-52
2021/12/08 05:49:16;;;;;;;27.95;10.18;;;;;;;-5.19;72.65;99244.84;5152044;27;20121;-57
2021/12/08 05:51:45;;;;;;;26.60;10.15;;;;;;;-5.13;73.02;99240.91;5151835;27;20065;-55
2021/12/08 05:54:16;;;;;;;30.23;10.75;;;;;;;-5.20;73.56;99238.06;5149461;27;20524;-55
2021/12/08 05:56:45;;;;;;;27.40;10.98;;;;;;;-5.09;72.58;99244.81;5150419;27;20169;-55
2021/12/08 05:59:14;;;;;;;32.42;11.15;;;;;;;-5.07;73.47;99258.44;5149124;27;20385;-57
2021/12/08 06:01:59;;;;;;;28.70;12.18;;;;;;;-5.05;72.85;99253.94;5149179;27;20526;-56
2021/12/08 06:04:30;;;;;;;24.40;9.90;;;;;;;-5.10;72.85;99250.94;5150104;27;20373;-58
2021/12/08 06:06:56;;;;;;;29.58;10.52;;;;;;;-5.08;72.97;99251.63;5146957;27;20507;-55
2021/12/08 06:09:28;;;;;;;31.45;11.48;;;;;;;-5.07;73.18;99261.81;5149605;27;20035;-56
2021/12/08 06:11:55;;;;;;;23.38;8.35;;;;;;;-5.02;72.56;99269.16;5150173;27;20049;-57
2021/12/08 06:14:25;;;;;;;27.30;11.18;;;;;;;-4.97;72.94;99272.16;5150960;27;20148;-55
2021/12/08 06:16:52;;;;;;;27.98;10.85;;;;;;;-5.03;72.87;99268.34;5149643;27;20133;-56
2021/12/08 06:19:20;;;;;;;33.20;11.48;;;;;;;-4.95;72.93;99264.25;5150431;27;20046;-60
2021/12/08 06:21:49;;;;;;;30.55;9.80;;;;;;;-4.97;72.68;99277.31;5148118;27;20051;-56
2021/12/08 06:24:15;;;;;;;38.75;12.38;;;;;;;-4.96;72.75;99272.97;5128092;27;20038;-59
2021/12/08 06:26:41;;;;;;;27.92;9.85;;;;;;;-4.98;72.19;99269.69;5130272;27;20066;-56
2021/12/08 06:29:11;;;;;;;33.47;11.05;;;;;;;-4.90;72.31;99273.22;5130454;27;20067;-56
2021/12/08 06:31:37;;;;;;;31.60;11.18;;;;;;;-4.95;72.26;99280.56;5137337;27;20500;-57
2021/12/08 06:34:05;;;;;;;33.60;11.05;;;;;;;-4.84;72.30;99289.94;5151669;27;20038;-56
2021/12/08 06:36:46;;;;;;;32.75;11.30;;;;;;;-4.85;71.57;99283.13;5151591;27;20441;-58
2021/12/08 06:39:20;;;;;;;28.70;10.15;;;;;;;-4.91;71.77;99292.28;5153563;27;20125;-56
2021/12/08 06:41:51;;;;;;;25.40;9.30;;;;;;;-4.92;72.19;99294.97;5151792;27;20043;-58
2021/12/08 06:44:22;;;;;;;21.88;8.57;;;;;;;-5.03;72.20;99288.19;5152487;27;20035;-58
2021/12/08 06:46:49;;;;;;;25.10;10.18;;;;;;;-4.98;72.30;99298.13;5150139;27;20038;-57
2021/12/08 06:49:17;;;;;;;24.77;10.57;;;;;;;-4.95;71.96;99301.25;5147627;27;20041;-61
2021/12/08 06:51:51;;;;;;;29.42;11.73;;;;;;;-5.06;72.36;99303.97;5147290;27;20515;-58
2021/12/08 06:54:22;;;;;;;28.05;10.88;;;;;;;-4.89;72.26;99298.09;5150172;27;20039;-56
2021/12/08 06:56:59;;;;;;;32.28;11.32;;;;;;;-4.74;71.83;99308.00;5151231;27;20066;-57
2021/12/08 06:59:34;;;;;;;27.23;11.63;;;;;;;-4.73;71.22;99307.06;5150325;27;20130;-56
2021/12/08 07:02:12;;;;;;;17.00;7.22;;;;;;;-4.76;70.58;99315.06;5148047;27;20494;-54
2021/12/08 07:04:55;;;;;;;25.27;9.63;;;;;;;-5.00;70.95;99318.13;5131371;27;20226;-55
2021/12/08 07:07:26;;;;;;;16.15;7.75;;;;;;;-5.13;71.22;99318.44;5147083;27;20183;-57
2021/12/08 07:10:02;;;;;;;24.45;9.70;;;;;;;-5.13;71.76;99316.66;5147636;27;20043;-56
2021/12/08 07:12:37;;;;;;;25.83;9.88;;;;;;;-5.07;71.87;99312.69;5149059;27;20127;-58
2021/12/08 07:15:16;;;;;;;30.15;10.55;;;;;;;-4.97;71.75;99317.84;5148683;27;20276;-58
2021/12/08 07:17:45;;;;;;;25.05;10.30;;;;;;;-5.03;71.22;99330.41;5150570;27;20378;-57
2021/12/08 07:20:34;;;;;;;26.15;9.85;;;;;;;-4.99;70.97;99319.78;5149071;27;20042;-56
2021/12/08 07:23:04;;;;;;;26.35;10.48;;;;;;;-5.05;71.43;99321.94;5147528;27;20137;-55
2021/12/08 07:25:33;;;;;;;30.80;10.10;;;;;;;-5.00;71.15;99324.09;5151098;27;20133;-58
2021/12/08 07:28:01;;;;;;;25.88;11.05;;;;;;;-5.13;72.02;99328.78;5150439;27;20418;-58
2021/12/08 07:30:30;;;;;;;33.10;11.02;;;;;;;-5.06;71.45;99329.84;5148286;27;20087;-58
2021/12/08 07:32:57;;;;;;;27.60;11.07;;;;;;;-4.96;71.39;99324.66;5150166;27;20467;-58
2021/12/08 07:35:36;;;;;;;26.48;11.93;;;;;;;-4.92;71.38;99324.22;5149229;27;20542;-56
2021/12/08 07:38:04;;;;;;;34.40;12.20;;;;;;;-4.92;71.33;99334.56;5148583;27;20068;-52
2021/12/08 07:40:36;;;;;;;27.80;10.63;;;;;;;-5.03;71.22;99335.56;5149002;27;20236;-56
2021/12/08 07:43:09;;;;;;;26.23;10.45;;;;;;;-4.83;70.11;99338.09;5149442;27;20121;-55
2021/12/08 07:45:47;;;;;;;24.67;10.52;;;;;;;-5.07;70.79;99334.19;5147570;27;20617;-53
2021/12/08 07:48:16;;;;;;;23.85;10.23;;;;;;;-5.10;70.91;99338.81;5147367;27;20047;-55
2021/12/08 07:50:47;;;;;;;25.55;10.02;;;;;;;-5.08;70.63;99350.66;5148535;27;20039;-56
2021/12/08 07:53:16;;;;;;;22.92;10.07;;;;;;;-5.08;70.78;99348.06;5147292;27;20466;-54
2021/12/08 07:55:50;;;;;;;22.65;9.38;;;;;;;-5.13;70.52;99352.03;5147988;27;20041;-55
2021/12/08 07:58:18;;;;;;;23.17;9.68;;;;;;;-5.24;71.27;99352.97;5151224;27;20038;-54
2021/12/08 08:00:51;;;;;;;24.25;11.93;;;;;;;-5.21;70.75;99338.97;5149704;27;20499;-57
2021/12/08 08:03:19;;;;;;;25.25;9.38;;;;;;;-5.21;71.19;99344.13;5148432;27;20042;-55
2021/12/08 08:05:48;;;;;;;28.50;9.95;;;;;;;-5.20;70.80;99345.78;5148785;27;20045;-54
2021/12/08 08:08:15;;;;;;;29.83;10.43;;;;;;;-5.25;71.19;99351.34;5148373;27;20035;-56
2021/12/08 08:10:47;;;;;;;29.52;9.60;;;;;;;-5.35;71.62;99347.97;5148990;27;20054;-55
2021/12/08 08:13:16;;;;;;;20.33;10.35;;;;;;;-5.31;71.92;99349.31;5147527;27;20046;-54
2021/12/08 08:15:46;;;;;;;25.65;9.57;;;;;;;-5.47;71.99;99342.13;5150036;27;20039;-55
2021/12/08 08:18:18;;;;;;;19.58;8.95;;;;;;;-5.38;72.06;99356.81;5149266;27;20035;-56
2021/12/08 08:20:51;;;;;;;25.45;9.80;;;;;;;-5.37;71.42;99357.63;5150835;27;20058;-58
2021/12/08 08:23:19;;;;;;;22.55;10.55;;;;;;;-5.27;71.81;99361.00;5151460;27;20086;-56
2021/12/08 08:25:46;;;;;;;26.45;9.70;;;;;;;-5.26;71.71;99358.31;5147608;27;20035;-57
2021/12/08 08:28:14;;;;;;;25.17;10.10;;;;;;;-5.40;71.90;99355.31;5150069;27;20506;-56
2021/12/08 08:30:50;;;;;;;24.40;11.18;;;;;;;-5.23;71.88;99361.56;5150865;27;20043;-56
2021/12/08 08:33:18;;;;;;;25.42;9.65;;;;;;;-5.23;71.35;99359.00;5150372;27;20039;-56
2021/12/08 08:35:46;;;;;;;24.58;9.32;;;;;;;-5.18;71.60;99355.00;5147795;27;20423;-52
2021/12/08 08:38:17;;;;;;;24.88;10.27;;;;;;;-4.99;71.08;99361.13;5148605;27;20527;-56
2021/12/08 08:40:53;;;;;;;21.63;9.15;;;;;;;-5.26;71.09;99366.06;5148512;27;20047;-56
2021/12/08 08:43:20;;;;;;;19.85;7.78;;;;;;;-5.41;71.86;99366.56;5148513;27;20068;-55
2021/12/08 08:45:53;;;;;;;23.67;9.13;;;;;;;-5.35;71.71;99366.06;5147970;27;20031;-56
2021/12/08 08:48:28;;;;;;;27.98;9.73;;;;;;;-5.30;71.19;99361.28;5148114;27;20495;-56
2021/12/08 08:50:59;;;;;;;20.63;9.30;;;;;;;-5.11;70.66;99366.44;5147949;27;20034;-55
2021/12/08 08:53:30;;;;;;;23.10;7.93;;;;;;;-5.19;70.83;99370.66;5147603;27;20065;-55
2021/12/08 08:56:09;;;;;;;22.70;8.27;;;;;;;-5.30;70.95;99374.19;5148467;27;20522;-55
2021/12/08 08:58:41;;;;;;;22.45;8.75;;;;;;;-5.25;70.16;99367.66;5128570;27;20035;-52
2021/12/08 09:01:13;;;;;;;12.60;5.60;;;;;;;-5.38;70.46;99366.31;5146248;27;20045;-56
2021/12/08 09:03:52;;;;;;;23.35;9.00;;;;;;;-5.32;71.13;99370.94;5148062;27;20138;-57
2021/12/08 09:06:40;;;;;;;24.73;9.00;;;;;;;-5.34;71.26;99360.75;5146814;27;20074;-55
2021/12/08 09:09:12;;;;;;;21.67;9.20;;;;;;;-5.33;70.75;99369.31;5147698;27;20038;-53
2021/12/08 09:11:48;;;;;;;20.50;8.50;;;;;;;-5.33;70.89;99366.72;5147130;27;20123;-58
2021/12/08 09:14:25;;;;;;;19.27;9.32;;;;;;;-5.19;71.38;99365.50;5150667;27;20046;-57
2021/12/08 09:17:12;;;;;;;22.60;9.40;;;;;;;-5.13;70.94;99364.94;5151169;27;20054;-57
2021/12/08 09:19:43;;;;;;;26.08;9.90;;;;;;;-5.03;70.71;99373.50;5146708;27;20125;-56
2021/12/08 09:22:26;;;;;;;19.98;8.38;;;;;;;-5.11;69.88;99375.97;5149590;27;20423;-57
2021/12/08 09:24:54;;;;;;;24.75;9.23;;;;;;;-5.17;70.23;99376.53;5152508;27;20038;-58
2021/12/08 09:27:42;;;;;;;16.80;7.03;;;;;;;-5.30;70.35;99380.19;5153537;27;20042;-58
2021/12/08 09:30:34;;;;;;;26.20;10.27;;;;;;;-5.26;70.39;99367.81;5144470;27;20057;-59
2021/12/08 09:33:19;;;;;;;19.13;8.32;;;;;;;-5.39;70.31;99377.59;5152499;27;20050;-60
2021/12/08 09:36:02;;;;;;;20.08;8.60;;;;;;;-5.42;71.05;99378.69;5152315;27;20058;-56
2021/12/08 09:38:37;;;;;;;20.77;8.18;;;;;;;-5.62;71.74;99364.94;5150972;27;20047;-58
2021/12/08 09:41:18;;;;;;;19.98;8.20;;;;;;;-5.41;71.18;99362.25;5149615;27;20548;-57
2021/12/08 09:43:50;;;;;;;15.98;7.18;;;;;;;-5.39;70.64;99364.69;5151439;27;20158;-58
2021/12/08 09:46:21;;;;;;;21.25;8.25;;;;;;;-5.33;70.95;99369.31;5151111;27;20054;-56
2021/12/08 09:48:48;;;;;;;17.58;7.63;;;;;;;-5.27;69.64;99381.69;5152185;27;20054;-58
2021/12/08 09:51:20;;;;;;;17.75;7.55;;;;;;;-5.23;69.51;99369.31;5133196;27;20057;-57
2021/12/08 09:53:46;;;;;;;20.90;8.75;;;;;;;-5.35;70.46;99376.41;5152151;27;20415;-58
2021/12/08 09:56:12;;;;;;;15.98;6.68;;;;;;;-5.49;71.09;99370.66;5150814;27;20039;-60
2021/12/08 09:58:40;;;;;;;21.05;7.80;;;;;;;-5.51;70.76;99371.75;5144187;27;20049;-60
2021/12/08 10:01:09;;;;;;;15.13;7.38;;;;;;;-5.42;70.21;99370.94;5152456;27;20091;-60
2021/12/08 10:03:36;;;;;;;16.60;7.20;;;;;;;-5.48;70.29;99363.72;5144319;27;20039;-59
2021/12/08 10:06:02;;;;;;;16.48;8.00;;;;;;;-5.40;70.27;99363.06;5134223;27;20043;-58
2021/12/08 10:08:29;;;;;;;15.93;7.10;;;;;;;-5.63;70.99;99365.88;5127843;27;20038;-60
2021/12/08 10:10:55;;;;;;;15.88;7.25;;;;;;;-5.63;71.25;99378.81;5153062;27;20050;-60
2021/12/08 10:13:22;;;;;;;16.58;7.05;;;;;;;-5.61;70.63;99360.59;5149043;27;20035;-59
2021/12/08 10:15:48;;;;;;;16.08;7.03;;;;;;;-5.49;70.18;99367.28;5148506;27;20053;-58
2021/12/08 10:18:15;;;;;;;16.95;7.85;;;;;;;-5.59;70.01;99359.53;5138532;27;20039;-58
2021/12/08 10:20:48;;;;;;;20.42;8.65;;;;;;;-5.58;70.26;99375.81;5118417;27;20495;-58
2021/12/08 10:23:27;;;;;;;13.52;6.57;;;;;;;-5.58;70.91;99368.88;5129723;27;20039;-57
2021/12/08 10:25:59;;;;;;;20.52;7.13;;;;;;;-5.65;70.50;99360.03;5130349;27;20047;-58
2021/12/08 10:28:33;;;;;;;19.02;7.55;;;;;;;-5.52;69.99;99375.28;5130507;27;20043;-59
2021/12/08 10:31:18;;;;;;;20.63;8.57;;;;;;;-5.51;70.44;99377.72;5131723;27;20053;-59
2021/12/08 10:34:04;;;;;;;17.65;7.22;;;;;;;-5.51;70.66;99375.13;5146142;27;20418;-58
2021/12/08 10:36:45;;;;;;;19.45;8.02;;;;;;;-5.49;70.14;99381.00;5151415;27;20086;-57
2021/12/08 10:39:32;;;;;;;18.75;7.88;;;;;;;-5.52;70.38;99383.84;5123281;27;20599;-59
2021/12/08 10:42:17;;;;;;;25.70;8.02;;;;;;;-5.50;70.37;99379.38;5151846;27;20051;-56
2021/12/08 10:44:55;;;;;;;18.98;7.97;;;;;;;-5.65;69.96;99375.53;5111251;27;20042;-57
2021/12/08 10:47:24;;;;;;;16.85;7.90;;;;;;;-5.65;70.22;99379.88;5126166;27;20051;-58
2021/12/08 10:55:23;;;;;;;15.32;6.80;;;;;;;-5.69;70.13;99399.19;5140256;27;20050;-56
2021/12/08 10:57:54;;;;;;;18.10;7.07;;;;;;;-5.66;69.99;99397.16;5148312;27;20039;-54
2021/12/08 11:00:33;;;;;;;19.40;7.93;;;;;;;-5.66;70.98;99402.31;5149965;27;20086;-54
2021/12/08 11:03:12;;;;;;;17.05;7.95;;;;;;;-5.74;70.12;99404.72;5148123;27;20038;-55
2021/12/08 11:05:48;;;;;;;18.23;7.57;;;;;;;-5.72;70.67;99401.06;5147862;27;20083;-56
2021/12/08 11:08:14;;;;;;;17.20;7.35;;;;;;;-5.58;69.87;99404.25;5130794;27;20081;-55
2021/12/08 11:10:50;;;;;;;13.85;7.22;;;;;;;-5.75;70.67;99403.91;5150150;27;20066;-55
2021/12/08 11:13:20;;;;;;;15.02;7.65;;;;;;;-5.90;70.16;99407.81;5149760;27;20046;-57
2021/12/08 11:15:48;;;;;;;21.58;8.00;;;;;;;-5.85;70.14;99410.84;5152100;27;20039;-57
2021/12/08 11:18:21;;;;;;;15.40;7.55;;;;;;;-5.75;70.02;99418.59;5150618;27;20035;-54
2021/12/08 11:20:54;;;;;;;17.95;8.35;;;;;;;-5.77;69.36;99425.66;5148706;27;20086;-56
2021/12/08 11:23:41;;;;;;;16.00;7.40;;;;;;;-5.84;69.28;99409.06;5147950;27;20051;-58
2021/12/08 11:26:17;;;;;;;16.05;7.60;;;;;;;-5.86;69.19;99422.09;5149744;27;20050;-56
2021/12/08 11:28:44;;;;;;;12.60;6.53;;;;;;;-6.14;68.94;99422.84;5146182;27;20034;-58
2021/12/08 11:31:15;;;;;;;16.83;7.80;;;;;;;-6.31;69.67;99430.25;5148179;27;20072;-54
2021/12/08 11:33:44;;;;;;;14.32;7.05;;;;;;;-6.37;69.68;99437.69;5149658;27;20134;-54
2021/12/08 11:36:16;;;;;;;13.32;6.13;;;;;;;-6.44;69.75;99451.09;5148540;27;20162;-59
2021/12/08 11:38:45;;;;;;;12.55;7.07;;;;;;;-6.38;69.05;99439.44;5148024;27;20057;-58
2021/12/08 11:41:24;;;;;;;12.05;6.60;;;;;;;-6.43;67.95;99434.66;5112779;27;20081;-58
2021/12/08 11:43:55;;;;;;;14.50;6.85;;;;;;;-6.43;68.44;99437.25;5113099;27;20047;-60
2021/12/08 11:46:22;;;;;;;13.88;6.32;;;;;;;-6.62;69.06;99442.28;5129667;27;20125;-58
2021/12/08 11:48:59;;;;;;;11.88;5.93;;;;;;;-6.59;68.53;99430.88;5148764;27;20506;-59
2021/12/08 11:51:25;;;;;;;12.82;6.40;;;;;;;-6.59;68.74;99447.19;5149506;27;20078;-58
2021/12/08 11:53:51;;;;;;;12.48;6.53;;;;;;;-6.59;68.90;99443.78;5151381;27;20114;-60
2021/12/08 11:56:50;;;;;;;14.77;6.72;;;;;;;-6.60;68.72;99448.13;5147019;27;20046;-58
2021/12/08 11:59:15;;;;;;;11.55;5.68;;;;;;;-6.54;68.23;99439.06;5161027;27;20378;-58
2021/12/08 12:01:41;;;;;;;17.35;7.07;;;;;;;-6.53;67.91;99431.22;5150764;27;20039;-56
2021/12/08 12:04:09;;;;;;;14.48;6.70;;;;;;;-6.65;68.52;99437.38;5151669;27;20111;-58
2021/12/08 12:06:36;;;;;;;15.82;7.70;;;;;;;-6.71;68.49;99428.38;5150715;27;20043;-56
2021/12/08 12:09:04;;;;;;;15.13;6.93;;;;;;;-6.63;68.39;99420.03;5150952;27;20054;-58
2021/12/08 12:11:30;;;;;;;13.20;7.50;;;;;;;-6.42;68.46;99427.72;5149762;27;20046;-56
2021/12/08 12:13:58;;;;;;;16.95;8.18;;;;;;;-6.50;68.23;99425.81;5150279;27;20042;-59
2021/12/08 12:16:24;;;;;;;13.60;6.95;;;;;;;-6.41;67.47;99434.53;5150826;27;20049;-57
2021/12/08 12:18:53;;;;;;;13.38;6.45;;;;;;;-6.48;67.72;99438.56;5151113;27;20504;-58
2021/12/08 12:21:37;;;;;;;19.40;7.70;;;;;;;-6.48;67.73;99447.09;5150023;27;20050;-58
2021/12/08 12:24:33;;;;;;;16.25;7.55;;;;;;;-6.54;67.89;99452.78;5149594;27;20384;-59
2021/12/08 12:27:32;;;;;;;15.38;6.93;;;;;;;-6.64;68.14;99444.19;5129815;28;20090;-59